Time;durP1;ratioP1;P1;durP2;ratioP2;P2;SDS_P1;SDS_P2;PMS_P1;PMS_P2;Temp;Humidity;BMP_temperature;BMP_pressure;BME280_temperature;BME280_humidity;BME280_pressure;Samples;Min_cycle;Max_cycle;Signal;HPM_P1;HPM_P2
2023/05/22 00:00:43;;;;;;;;;;;;;;;19.96;66.32;100704.50;7400015;19;1230;-42
2023/05/22 00:03:11;;;;;;;;;;;;;;;19.92;66.91;100697.72;7396273;19;1455;-42
2023/05/22 00:05:40;;;;;;;;;;;;;;;19.93;66.62;100701.25;7397256;19;1847;-42
2023/05/22 00:08:10;;;;;;;;;;;;;;;19.90;66.49;100688.97;7397719;19;1823;-43
2023/05/22 00:10:41;;;;;;;;;;;;;;;19.90;66.57;100696.19;7397693;19;1407;-43
2023/05/22 00:13:09;;;;;;;;;;;;;;;19.92;66.63;100692.34;7397915;19;1453;-42
2023/05/22 00:15:37;;;;;;;;;;;;;;;19.92;66.33;100704.94;7399164;19;1340;-42
2023/05/22 00:18:07;;;;;;;;;;;;;;;19.92;66.65;100695.03;7399337;19;1394;-42
2023/05/22 00:20:37;;;;;;;;;;;;;;;19.92;66.85;100702.25;7398538;19;1398;-42
2023/05/22 00:23:08;;;;;;;;;;;;;;;19.89;66.47;100694.47;7399210;19;1320;-42
2023/05/22 00:25:37;;;;;;;;;;;;;;;19.90;66.47;100709.59;7398050;19;1849;-42
2023/05/22 00:28:08;;;;;;;;;;;;;;;19.92;66.40;100704.94;7400399;19;945;-42
2023/05/22 00:30:36;;;;;;;;;;;;;;;19.90;66.23;100701.53;7398637;19;1884;-42
2023/05/22 00:33:05;;;;;;;;;;;;;;;19.92;66.30;100705.78;7398117;19;1865;-42
2023/05/22 00:35:33;;;;;;;;;;;;;;;19.94;66.25;100703.78;7397985;19;1646;-42
2023/05/22 00:38:05;;;;;;;;;;;;;;;19.93;66.56;100702.09;7396772;19;1320;-42
2023/05/22 00:40:33;;;;;;;;;;;;;;;19.95;66.27;100710.00;7396724;19;1378;-42
2023/05/22 00:43:07;;;;;;;;;;;;;;;19.94;66.33;100713.69;7398567;19;1749;-42
2023/05/22 00:45:37;;;;;;;;;;;;;;;19.92;66.15;100711.13;7397044;19;1838;-42
2023/05/22 00:48:08;;;;;;;;;;;;;;;19.98;66.24;100715.09;7398668;19;1679;-42
2023/05/22 00:50:36;;;;;;;;;;;;;;;19.91;66.51;100714.81;7397419;19;1729;-42
2023/05/22 00:53:05;;;;;;;;;;;;;;;19.91;66.66;100695.19;7398486;19;1709;-42
2023/05/22 00:55:33;;;;;;;;;;;;;;;19.90;66.13;100690.81;7398929;19;1047;-42
2023/05/22 00:58:06;;;;;;;;;;;;;;;19.92;66.33;100694.19;7398675;19;1042;-42
2023/05/22 01:00:35;;;;;;;;;;;;;;;19.92;66.44;100689.66;7396558;19;1896;-42
2023/05/22 01:03:08;;;;;;;;;;;;;;;19.89;66.20;100689.09;7397272;19;1340;-42
2023/05/22 01:05:36;;;;;;;;;;;;;;;19.92;66.32;100700.41;7396291;19;1855;-42
2023/05/22 01:08:05;;;;;;;;;;;;;;;19.89;66.59;100684.56;7395913;19;1395;-42
2023/05/22 01:10:34;;;;;;;;;;;;;;;19.89;66.47;100681.88;7396111;19;1778;-42
2023/05/22 01:13:06;;;;;;;;;;;;;;;19.84;66.69;100682.31;7398092;19;2006;-42
2023/05/22 01:15:38;;;;;;;;;;;;;;;19.88;66.61;100690.09;7402347;19;1730;-42
2023/05/22 01:18:18;;;;;;;;;;;;;;;19.85;66.72;100684.00;7405145;19;1810;-42
2023/05/22 01:20:52;;;;;;;;;;;;;;;19.85;66.84;100675.97;7403927;19;1462;-42
2023/05/22 01:23:38;;;;;;;;;;;;;;;19.85;66.65;100680.50;7404947;19;1726;-42
2023/05/22 01:26:23;;;;;;;;;;;;;;;19.85;66.72;100673.28;7402624;19;1855;-42
2023/05/22 01:28:57;;;;;;;;;;;;;;;19.85;66.58;100675.13;7404377;19;1664;-42
2023/05/22 01:31:29;;;;;;;;;;;;;;;19.89;66.13;100667.63;7405195;19;1028;-42
2023/05/22 01:33:58;;;;;;;;;;;;;;;19.88;66.42;100674.00;7405043;19;1943;-42
2023/05/22 01:36:29;;;;;;;;;;;;;;;19.85;66.63;100662.53;7403863;19;1513;-42
2023/05/22 01:38:59;;;;;;;;;;;;;;;19.91;66.16;100668.34;7403696;19;1451;-42
2023/05/22 01:41:29;;;;;;;;;;;;;;;19.90;66.14;100674.72;7403985;19;1720;-42
2023/05/22 01:43:57;;;;;;;;;;;;;;;19.89;66.00;100664.94;7404003;19;1817;-42
2023/05/22 01:46:29;;;;;;;;;;;;;;;19.86;66.56;100658.03;7400839;19;1842;-42
2023/05/22 01:48:58;;;;;;;;;;;;;;;19.89;66.21;100657.75;7403682;19;1733;-42
2023/05/22 01:51:30;;;;;;;;;;;;;;;19.91;66.12;100666.50;7402556;19;1710;-42
2023/05/22 01:54:04;;;;;;;;;;;;;;;19.89;66.46;100667.63;7402367;19;1853;-42
2023/05/22 01:56:35;;;;;;;;;;;;;;;19.85;66.57;100673.28;7402441;19;1462;-42
2023/05/22 01:59:11;;;;;;;;;;;;;;;19.89;66.45;100667.63;7404425;19;1488;-42
2023/05/22 02:01:43;;;;;;;;;;;;;;;19.86;66.36;100650.84;7403535;19;1375;-42
2023/05/22 02:04:12;;;;;;;;;;;;;;;19.89;66.26;100662.25;7404635;19;1032;-42
2023/05/22 02:06:41;;;;;;;;;;;;;;;19.88;66.23;100672.16;7404334;19;2006;-42
2023/05/22 02:09:09;;;;;;;;;;;;;;;19.86;66.41;100669.63;7401331;19;1938;-42
2023/05/22 02:11:39;;;;;;;;;;;;;;;19.84;66.52;100668.06;7399593;19;1510;-42
2023/05/22 02:14:08;;;;;;;;;;;;;;;19.83;66.24;100661.84;7404213;19;1397;-42
2023/05/22 02:16:36;;;;;;;;;;;;;;;19.83;66.53;100679.78;7403034;19;1414;-42
2023/05/22 02:19:07;;;;;;;;;;;;;;;19.81;66.19;100671.88;7402804;19;1820;-42
2023/05/22 02:21:36;;;;;;;;;;;;;;;19.82;66.02;100676.25;7402294;19;1738;-42
2023/05/22 02:24:05;;;;;;;;;;;;;;;19.76;66.75;100676.00;7402134;19;1379;-42
2023/05/22 02:26:33;;;;;;;;;;;;;;;19.87;65.92;100675.81;7397860;19;1847;-42
2023/05/22 02:29:01;;;;;;;;;;;;;;;19.83;66.53;100683.31;7403466;19;1446;-42
2023/05/22 02:31:30;;;;;;;;;;;;;;;19.83;66.13;100679.78;7402727;19;999;-42
2023/05/22 02:33:58;;;;;;;;;;;;;;;19.82;65.96;100687.00;7400262;19;1557;-42
2023/05/22 02:36:29;;;;;;;;;;;;;;;19.87;66.35;100686.56;7401055;19;1775;-42
2023/05/22 02:38:57;;;;;;;;;;;;;;;19.90;65.88;100690.81;7401059;19;1667;-54
2023/05/22 02:41:26;;;;;;;;;;;;;;;19.82;66.16;100681.63;7401748;19;1397;-42
2023/05/22 02:43:54;;;;;;;;;;;;;;;19.86;66.29;100679.50;7401841;19;1375;-42
2023/05/22 02:46:22;;;;;;;;;;;;;;;19.87;66.18;100694.59;7400554;19;1864;-42
2023/05/22 02:48:51;;;;;;;;;;;;;;;19.91;66.09;100687.13;7401854;19;1309;-42
2023/05/22 02:51:19;;;;;;;;;;;;;;;19.88;65.80;100690.94;7402909;19;1015;-42
2023/05/22 02:53:50;;;;;;;;;;;;;;;19.88;65.92;100682.06;7402506;19;1856;-42
2023/05/22 02:56:19;;;;;;;;;;;;;;;19.89;65.95;100692.63;7401413;19;1601;-42
2023/05/22 02:58:48;;;;;;;;;;;;;;;19.90;65.80;100690.81;7400033;19;1939;-42
2023/05/22 03:01:16;;;;;;;;;;;;;;;19.90;66.28;100696.19;7400671;19;920;-63
2023/05/22 03:03:47;;;;;;;;;;;;;;;19.92;65.75;100689.66;7401190;19;1907;-42
2023/05/22 03:06:15;;;;;;;;;;;;;;;19.94;66.00;100693.06;7399113;19;1854;-42
2023/05/22 03:08:43;;;;;;;;;;;;;;;19.95;66.11;100696.56;7399948;19;1402;-42
2023/05/22 03:11:14;;;;;;;;;;;;;;;19.93;65.61;100687.81;7400506;19;1382;-42
2023/05/22 03:13:43;;;;;;;;;;;;;;;19.91;65.64;100692.50;7400664;19;1681;-42
2023/05/22 03:16:11;;;;;;;;;;;;;;;19.91;66.25;100695.19;7400594;19;1709;-42
2023/05/22 03:18:40;;;;;;;;;;;;;;;19.91;65.79;100687.13;7400159;19;1470;-42
2023/05/22 03:21:08;;;;;;;;;;;;;;;19.92;65.84;100695.03;7399539;19;1796;-42
2023/05/22 03:23:36;;;;;;;;;;;;;;;19.92;65.81;100688.84;7399696;19;1821;-42
2023/05/22 03:26:04;;;;;;;;;;;;;;;19.92;65.85;100689.66;7400852;19;1843;-42
2023/05/22 03:28:36;;;;;;;;;;;;;;;19.89;65.90;100686.41;7400542;19;1427;-42
2023/05/22 03:31:04;;;;;;;;;;;;;;;19.91;66.30;100693.31;7402218;19;1042;-42
2023/05/22 03:33:32;;;;;;;;;;;;;;;19.86;65.85;100679.50;7397607;19;1497;-42
2023/05/22 03:36:02;;;;;;;;;;;;;;;19.83;65.91;100686.00;7400603;19;1468;-42
2023/05/22 03:38:30;;;;;;;;;;;;;;;19.81;66.52;100689.81;7397306;19;1386;-42
2023/05/22 03:40:58;;;;;;;;;;;;;;;19.85;66.00;100689.38;7399770;19;1678;-42
2023/05/22 03:43:27;;;;;;;;;;;;;;;19.85;66.27;100694.75;7400060;19;1825;-42
2023/05/22 03:45:58;;;;;;;;;;;;;;;19.86;65.97;100688.41;7400419;19;1857;-42
2023/05/22 03:48:26;;;;;;;;;;;;;;;19.80;66.04;100688.97;7400031;19;1635;-42
2023/05/22 03:50:54;;;;;;;;;;;;;;;19.82;65.93;100692.34;7400357;19;1773;-42
2023/05/22 03:53:23;;;;;;;;;;;;;;;19.79;66.47;100684.59;7399620;19;1852;-42
2023/05/22 03:55:51;;;;;;;;;;;;;;;19.80;66.45;100699.72;7400092;19;1473;-42
2023/05/22 03:58:19;;;;;;;;;;;;;;;19.80;66.31;100683.59;7399556;19;1804;-42
2023/05/22 04:00:47;;;;;;;;;;;;;;;19.80;66.15;100680.94;7400040;19;1114;-42
2023/05/22 04:03:18;;;;;;;;;;;;;;;19.83;66.43;100680.63;7397907;19;1876;-42
2023/05/22 04:05:47;;;;;;;;;;;;;;;19.79;66.19;100684.59;7398543;19;1856;-42
2023/05/22 04:08:15;;;;;;;;;;;;;;;19.73;66.77;100695.88;7397879;19;1732;-42
2023/05/22 04:10:45;;;;;;;;;;;;;;;19.74;66.89;100681.50;7398170;19;1816;-42
2023/05/22 04:13:13;;;;;;;;;;;;;;;19.72;66.92;100688.84;7398076;19;1726;-42
2023/05/22 04:15:44;;;;;;;;;;;;;;;19.70;66.71;100684.59;7397520;19;1415;-42
2023/05/22 04:18:12;;;;;;;;;;;;;;;19.73;66.67;100687.84;7399132;19;1683;-42
2023/05/22 04:20:44;;;;;;;;;;;;;;;19.76;66.91;100684.88;7398929;19;1324;-42
2023/05/22 04:23:12;;;;;;;;;;;;;;;19.81;66.55;100696.03;7398015;19;1837;-42
2023/05/22 04:25:40;;;;;;;;;;;;;;;19.76;66.36;100695.63;7398169;19;1855;-42
2023/05/22 04:28:09;;;;;;;;;;;;;;;19.74;66.89;100692.22;7399634;19;1026;-43
2023/05/22 04:30:38;;;;;;;;;;;;;;;19.76;66.47;100703.66;7399551;19;1097;-42
2023/05/22 04:33:07;;;;;;;;;;;;;;;19.79;66.59;100692.63;7398891;19;1572;-42
2023/05/22 04:35:35;;;;;;;;;;;;;;;19.82;66.38;100721.88;7398440;19;1513;-42
2023/05/22 04:38:06;;;;;;;;;;;;;;;19.79;66.43;100703.38;7398926;19;1559;-42
2023/05/22 04:40:36;;;;;;;;;;;;;;;19.86;66.55;100700.97;7398431;19;1822;-42
2023/05/22 04:43:05;;;;;;;;;;;;;;;19.85;66.64;100700.09;7398000;19;1682;-42
2023/05/22 04:45:34;;;;;;;;;;;;;;;19.84;66.12;100695.75;7397571;19;1837;-42
2023/05/22 04:48:03;;;;;;;;;;;;;;;19.86;66.55;100700.97;7397203;19;1324;-42
2023/05/22 04:50:31;;;;;;;;;;;;;;;19.81;66.67;100687.97;7396190;19;1782;-42
2023/05/22 04:53:02;;;;;;;;;;;;;;;19.78;66.78;100704.38;7397818;19;1402;-42
2023/05/22 04:55:35;;;;;;;;;;;;;;;19.79;66.82;100706.03;7398283;19;1734;-42
2023/05/22 04:58:04;;;;;;;;;;;;;;;19.82;66.75;100700.41;7398918;19;956;-42
2023/05/22 05:00:33;;;;;;;;;;;;;;;19.78;66.72;100700.84;7396624;19;1798;-42
2023/05/22 05:03:01;;;;;;;;;;;;;;;19.85;66.26;100710.00;7397157;19;1395;-42
2023/05/22 05:05:30;;;;;;;;;;;;;;;19.95;66.27;100700.09;7396220;19;1859;-42
2023/05/22 05:07:58;;;;;;;;;;;;;;;20.01;65.84;100709.41;7395292;19;1398;-42
2023/05/22 05:10:29;;;;;;;;;;;;;;;20.02;65.97;100705.75;7393998;19;1431;-42
2023/05/22 05:13:01;;;;;;;;;;;;;;;20.04;65.96;100696.56;7396981;19;1327;-43
2023/05/22 05:15:29;;;;;;;;;;;;;;;20.01;65.69;100701.38;7397177;19;1722;-42
2023/05/22 05:17:57;;;;;;;;;;;;;;;20.10;65.68;100703.19;7396848;19;1713;-42
2023/05/22 05:20:26;;;;;;;;;;;;;;;20.14;65.86;100704.59;7396591;19;1688;-42
2023/05/22 05:22:54;;;;;;;;;;;;;;;20.08;65.51;100704.34;7398121;19;1101;-42
2023/05/22 05:25:22;;;;;;;;;;;;;;;19.93;66.37;100703.94;7397922;19;1848;-42
2023/05/22 05:27:51;;;;;;;;;;;;;;;19.89;66.37;100699.84;7397802;19;1979;-42
2023/05/22 05:30:22;;;;;;;;;;;;;;;19.92;66.24;100699.56;7396922;19;1517;-42
2023/05/22 05:32:50;;;;;;;;;;;;;;;19.95;66.18;100699.25;7392802;19;1515;-42
2023/05/22 05:35:18;;;;;;;;;;;;;;;20.04;66.15;100706.47;7397497;19;1094;-42
2023/05/22 05:37:46;;;;;;;;;;;;;;;20.08;65.70;100699.81;7397005;19;1583;-42
2023/05/22 05:40:15;;;;;;;;;;;;;;;20.11;65.88;100699.50;7396326;19;1857;-42
2023/05/22 05:42:43;;;;;;;;;;;;;;;20.13;65.34;100696.69;7396108;19;1475;-42
2023/05/22 05:45:12;;;;;;;;;;;;;;;20.21;65.29;100699.50;7396397;19;1379;-42
2023/05/22 05:47:44;;;;;;;;;;;;;;;20.19;65.68;100702.34;7394015;19;1843;-42
2023/05/22 05:50:14;;;;;;;;;;;;;;;20.14;65.73;100711.81;7396011;19;1746;-42
2023/05/22 05:52:42;;;;;;;;;;;;;;;20.12;65.81;100708.44;7395115;19;1713;-43
2023/05/22 05:55:11;;;;;;;;;;;;;;;20.20;65.26;100714.75;7394498;19;1450;-43
2023/05/22 05:57:39;;;;;;;;;;;;;;;20.18;65.51;100705.16;7394576;19;1825;-44
2023/05/22 06:00:10;;;;;;;;;;;;;;;20.19;65.63;100712.22;7397496;19;1115;-42
2023/05/22 06:02:38;;;;;;;;;;;;;;;20.27;65.35;100721.25;7397847;19;1579;-42
2023/05/22 06:05:09;;;;;;;;;;;;;;;20.26;65.58;100707.97;7402109;19;1734;-42
2023/05/22 06:07:39;;;;;;;;;;;;;;;20.21;65.65;100705.72;7400931;19;1844;-42
2023/05/22 06:10:08;;;;;;;;;;;;;;;20.17;65.51;100708.81;7403003;19;1429;-42
2023/05/22 06:12:36;;;;;;;;;;;;;;;20.20;65.76;100717.44;7403252;19;1751;-42
2023/05/22 06:15:04;;;;;;;;;;;;;;;20.14;65.85;100718.03;7402304;19;1701;-42
2023/05/22 06:17:33;;;;;;;;;;;;;;;20.03;66.39;100726.22;7404822;19;1028;-42
2023/05/22 06:20:02;;;;;;;;;;;;;;;20.11;66.06;100726.34;7403716;19;1050;-42
2023/05/22 06:22:34;;;;;;;;;;;;;;;20.01;66.48;100728.22;7402501;19;1541;-58
2023/05/22 06:25:02;;;;;;;;;;;;;;;20.03;66.30;100712.81;7402801;19;1517;-42
2023/05/22 06:27:31;;;;;;;;;;;;;;;19.99;66.44;100730.19;7400225;19;1865;-42
2023/05/22 06:30:00;;;;;;;;;;;;;;;20.05;66.08;100716.19;7402346;19;1727;-42
2023/05/22 06:32:29;;;;;;;;;;;;;;;20.08;66.39;100726.66;7402552;19;1722;-42
2023/05/22 06:34:57;;;;;;;;;;;;;;;20.07;66.43;100711.53;7401480;19;1435;-43
2023/05/22 06:37:25;;;;;;;;;;;;;;;20.06;66.20;100715.22;7401359;19;1437;-43
2023/05/22 06:39:56;;;;;;;;;;;;;;;20.14;66.25;100699.22;7400800;19;1711;-43
2023/05/22 06:42:24;;;;;;;;;;;;;;;20.19;65.76;100712.22;7400146;19;1340;-42
2023/05/22 06:44:53;;;;;;;;;;;;;;;20.19;66.22;100714.91;7401966;19;1727;-42
2023/05/22 06:47:21;;;;;;;;;;;;;;;20.10;66.12;100689.78;7400106;19;1859;-42
2023/05/22 06:49:49;;;;;;;;;;;;;;;20.15;66.00;100700.91;7402321;19;1687;-43
2023/05/22 06:52:17;;;;;;;;;;;;;;;20.02;66.36;100705.75;7401945;19;1825;-43
2023/05/22 06:54:46;;;;;;;;;;;;;;;20.02;66.79;100711.97;7402159;19;1839;-42
2023/05/22 06:57:17;;;;;;;;;;;;;;;19.85;67.21;100704.63;7401705;19;1786;-42
2023/05/22 06:59:45;;;;;;;;;;;;;;;19.85;67.25;100700.09;7401468;19;1550;-42
2023/05/22 07:02:13;;;;;;;;;;;;;;;19.75;67.59;100688.53;7398649;19;1492;-42
2023/05/22 07:04:41;;;;;;;;;;;;;;;19.66;67.87;100703.63;7400795;19;1400;-42
2023/05/22 07:07:11;;;;;;;;;;;;;;;19.67;68.09;100729.47;7400436;19;1856;-43
2023/05/22 07:09:39;;;;;;;;;;;;;;;19.63;68.14;100719.16;7399255;19;1461;-42
2023/05/22 07:12:08;;;;;;;;;;;;;;;19.58;68.08;100708.88;7402396;19;1014;-42
2023/05/22 07:14:39;;;;;;;;;;;;;;;19.68;67.85;100707.03;7401664;19;1919;-42
2023/05/22 07:17:07;;;;;;;;;;;;;;;19.67;67.74;100696.44;7401461;19;1860;-42
2023/05/22 07:19:37;;;;;;;;;;;;;;;19.80;67.39;100696.19;7400994;19;1502;-42
2023/05/22 07:22:05;;;;;;;;;;;;;;;19.71;67.54;100697.88;7401808;19;1667;-42
2023/05/22 07:24:33;;;;;;;;;;;;;;;20.01;66.94;100709.41;7401163;19;1292;-42
2023/05/22 07:27:03;;;;;;;;;;;;;;;19.99;66.62;100703.34;7399195;19;1846;-42
2023/05/22 07:29:31;;;;;;;;;;;;;;;20.06;66.41;100691.06;7399365;19;1351;-42
2023/05/22 07:32:02;;;;;;;;;;;;;;;20.09;66.72;100701.50;7399198;19;1750;-42
2023/05/22 07:34:32;;;;;;;;;;;;;;;20.06;66.43;100694.59;7399452;19;1741;-42
2023/05/22 07:37:01;;;;;;;;;;;;;;;20.13;66.02;100692.16;7401001;19;1718;-42
2023/05/22 07:39:29;;;;;;;;;;;;;;;19.92;67.07;100705.78;7400671;19;1675;-42
2023/05/22 07:41:58;;;;;;;;;;;;;;;19.71;67.93;100692.50;7399634;19;1378;-42
2023/05/22 07:44:26;;;;;;;;;;;;;;;19.63;68.13;100703.06;7400681;19;1408;-42
2023/05/22 07:46:54;;;;;;;;;;;;;;;19.61;68.03;100692.47;7399848;19;1840;-42
2023/05/22 07:49:25;;;;;;;;;;;;;;;19.81;67.51;100687.13;7400806;19;1091;-42
2023/05/22 07:51:54;;;;;;;;;;;;;;;19.77;67.93;100691.94;7399980;19;1963;-42
2023/05/22 07:54:22;;;;;;;;;;;;;;;19.74;67.87;100676.13;7399632;19;1581;-42
2023/05/22 07:56:50;;;;;;;;;;;;;;;19.76;67.57;100687.56;7398915;19;1549;-43
2023/05/22 07:59:20;;;;;;;;;;;;;;;19.76;67.78;100694.78;7399838;19;1774;-42
2023/05/22 08:01:48;;;;;;;;;;;;;;;19.73;67.99;100682.47;7399368;19;1450;-42
2023/05/22 08:04:17;;;;;;;;;;;;;;;19.75;67.80;100682.34;7400567;19;1563;-42
2023/05/22 08:06:47;;;;;;;;;;;;;;;19.84;67.68;100694.91;7399315;19;1841;-42
2023/05/22 08:09:16;;;;;;;;;;;;;;;19.90;67.13;100688.13;7397027;19;1477;-42
2023/05/22 08:11:44;;;;;;;;;;;;;;;19.89;67.22;100684.56;7399178;19;1737;-42
2023/05/22 08:14:12;;;;;;;;;;;;;;;19.79;67.79;100679.22;7398583;19;1407;-42
2023/05/22 08:16:40;;;;;;;;;;;;;;;19.73;68.09;100690.53;7397307;19;1417;-42
2023/05/22 08:19:09;;;;;;;;;;;;;;;19.86;67.36;100682.19;7397924;19;1643;-42
2023/05/22 08:21:38;;;;;;;;;;;;;;;19.83;67.32;100674.41;7399037;19;1682;-43
2023/05/22 08:24:09;;;;;;;;;;;;;;;19.82;67.43;100681.63;7397347;19;1450;-42
2023/05/22 08:26:39;;;;;;;;;;;;;;;19.79;67.81;100662.28;7398541;19;1855;-42
2023/05/22 08:29:07;;;;;;;;;;;;;;;19.91;67.60;100676.38;7397719;19;1934;-42
2023/05/22 08:31:35;;;;;;;;;;;;;;;19.74;68.01;100676.13;7398526;19;2006;-42
2023/05/22 08:34:05;;;;;;;;;;;;;;;19.70;68.27;100673.84;7397502;19;1697;-42
2023/05/22 08:36:34;;;;;;;;;;;;;;;19.73;68.14;100687.84;7396813;19;1730;-42
2023/05/22 08:39:02;;;;;;;;;;;;;;;19.75;68.22;100685.84;7399347;19;1406;-42
2023/05/22 08:41:33;;;;;;;;;;;;;;;19.83;67.64;100696.72;7399118;19;999;-42
2023/05/22 08:44:02;;;;;;;;;;;;;;;19.90;68.11;100691.66;7396634;19;1768;-42
2023/05/22 08:46:36;;;;;;;;;;;;;;;19.86;68.16;100682.19;7396621;19;1826;-42
2023/05/22 08:49:06;;;;;;;;;;;;;;;19.86;68.13;100676.81;7397107;19;1399;-42
2023/05/22 08:51:35;;;;;;;;;;;;;;;19.89;67.93;100689.94;7398729;19;1386;-42
2023/05/22 08:54:06;;;;;;;;;;;;;;;19.88;67.78;100677.53;7398292;19;1799;-42
2023/05/22 08:56:38;;;;;;;;;;;;;;;19.92;67.72;100670.03;7398222;19;1042;-42
2023/05/22 08:59:07;;;;;;;;;;;;;;;19.90;67.93;100669.34;7396988;19;1857;-42
2023/05/22 09:01:36;;;;;;;;;;;;;;;20.16;66.96;100670.41;7398021;19;1121;-42
2023/05/22 09:04:05;;;;;;;;;;;;;;;20.11;67.03;100672.66;7398985;19;1040;-42
2023/05/22 09:06:33;;;;;;;;;;;;;;;19.99;67.30;100665.78;7398015;19;1939;-42
2023/05/22 09:09:02;;;;;;;;;;;;;;;20.05;67.42;100668.75;7393560;19;1458;-42
2023/05/22 09:11:30;;;;;;;;;;;;;;;20.03;67.21;100648.38;7397161;19;1382;-42
2023/05/22 09:14:11;;;;;;;;;;;;;;;20.00;67.30;100665.63;7396978;19;1391;-42
2023/05/22 09:16:48;;;;;;;;;;;;;;;19.90;67.60;100658.59;7396520;19;1387;-42
2023/05/22 09:19:17;;;;;;;;;;;;;;;19.98;67.52;100654.19;7397245;19;1789;-42
2023/05/22 09:21:46;;;;;;;;;;;;;;;20.15;66.85;100644.53;7397777;19;1469;-42
2023/05/22 09:24:14;;;;;;;;;;;;;;;20.20;66.81;100647.63;7397044;19;1691;-42
2023/05/22 09:26:43;;;;;;;;;;;;;;;20.12;66.40;100650.22;7397336;19;1835;-42
2023/05/22 09:29:14;;;;;;;;;;;;;;;19.97;67.48;100659.69;7396116;19;1813;-42
2023/05/22 09:31:43;;;;;;;;;;;;;;;19.95;67.49;100653.63;7396827;19;1754;-42
2023/05/22 09:34:12;;;;;;;;;;;;;;;19.83;67.94;100651.09;7396151;19;1387;-42
2023/05/22 09:36:41;;;;;;;;;;;;;;;19.84;67.91;100655.50;7400033;19;1693;-42
2023/05/22 09:39:09;;;;;;;;;;;;;;;19.76;68.21;100641.94;7402795;19;1375;-42
2023/05/22 09:41:39;;;;;;;;;;;;;;;19.76;68.08;100633.91;7403912;19;1437;-42
2023/05/22 09:44:16;;;;;;;;;;;;;;;19.74;67.79;100640.41;7404173;19;1458;-42
2023/05/22 09:46:47;;;;;;;;;;;;;;;19.70;68.30;100639.81;7403171;19;1339;-42
2023/05/22 09:49:15;;;;;;;;;;;;;;;19.76;67.88;100641.94;7404512;19;1395;-42
2023/05/22 09:51:46;;;;;;;;;;;;;;;19.80;68.03;100637.16;7403722;19;1394;-42
2023/05/22 09:54:16;;;;;;;;;;;;;;;19.75;67.78;100642.94;7405055;19;1004;-42
2023/05/22 09:56:45;;;;;;;;;;;;;;;19.74;68.39;100643.94;7403768;19;1793;-42
2023/05/22 09:59:22;;;;;;;;;;;;;;;19.74;68.00;100633.22;7399706;19;1916;-42
2023/05/22 10:01:52;;;;;;;;;;;;;;;19.81;67.92;100618.19;7403435;19;1937;-42
2023/05/22 10:04:23;;;;;;;;;;;;;;;19.75;68.28;100626.84;7403527;19;1620;-42
2023/05/22 10:06:52;;;;;;;;;;;;;;;19.71;67.97;100632.59;7404121;19;1010;-42
2023/05/22 10:09:23;;;;;;;;;;;;;;;19.72;68.29;100621.78;7401546;19;1509;-42
2023/05/22 10:11:54;;;;;;;;;;;;;;;19.65;68.49;100632.19;7403555;19;1801;-43
2023/05/22 10:14:25;;;;;;;;;;;;;;;19.70;68.20;100626.41;7402769;19;1463;-42
2023/05/22 10:16:55;;;;;;;;;;;;;;;19.95;67.88;100621.44;7402659;19;1750;-42
2023/05/22 10:19:26;;;;;;;;;;;;;;;20.17;66.47;100617.53;7402668;19;1454;-42
2023/05/22 10:21:57;;;;;;;;;;;;;;;20.26;66.69;100616.66;7402794;19;1821;-42
2023/05/22 10:24:25;;;;;;;;;;;;;;;20.40;65.85;100610.81;7402475;19;1359;-42
2023/05/22 10:26:55;;;;;;;;;;;;;;;20.31;66.45;100614.38;7401709;19;1730;-42
2023/05/22 10:29:27;;;;;;;;;;;;;;;20.27;66.40;100612.97;7399278;19;1847;-42
2023/05/22 10:31:59;;;;;;;;;;;;;;;20.43;65.96;100618.59;7401480;19;1714;-42
2023/05/22 10:34:31;;;;;;;;;;;;;;;20.41;65.76;100625.94;7401368;19;1730;-42
2023/05/22 10:37:10;;;;;;;;;;;;;;;20.32;65.99;100599.97;7402148;19;1406;-43
2023/05/22 10:39:43;;;;;;;;;;;;;;;20.04;67.01;100596.41;7402819;19;1813;-42
2023/05/22 10:42:14;;;;;;;;;;;;;;;19.94;67.29;100595.59;7402589;19;1730;-42
2023/05/22 10:44:45;;;;;;;;;;;;;;;19.89;67.70;100592.50;7401886;19;1663;-42
2023/05/22 10:47:13;;;;;;;;;;;;;;;19.90;67.38;100589.66;7399554;19;1849;-42
2023/05/22 10:49:45;;;;;;;;;;;;;;;19.92;67.80;100584.16;7402567;19;1689;-42
2023/05/22 10:52:14;;;;;;;;;;;;;;;19.84;67.66;100588.41;7402986;19;1061;-42
2023/05/22 10:54:44;;;;;;;;;;;;;;;19.78;67.78;100580.09;7403014;19;1017;-42
2023/05/22 10:57:15;;;;;;;;;;;;;;;19.74;67.90;100584.91;7401705;19;1435;-42
2023/05/22 10:59:49;;;;;;;;;;;;;;;19.76;68.00;100580.25;7399008;19;1431;-42
2023/05/22 11:02:21;;;;;;;;;;;;;;;19.69;68.18;100579.09;7402019;19;1990;-42
2023/05/22 11:04:50;;;;;;;;;;;;;;;19.78;67.97;100564.84;7401446;19;1733;-42
2023/05/22 11:07:18;;;;;;;;;;;;;;;19.81;67.67;100577.94;7400864;19;1839;-43
2023/05/22 11:09:47;;;;;;;;;;;;;;;19.79;68.17;100582.63;7399022;19;1414;-42
2023/05/22 11:12:27;;;;;;;;;;;;;;;19.74;68.27;100579.53;7402841;19;1113;-42
2023/05/22 11:14:58;;;;;;;;;;;;;;;19.67;68.59;100564.97;7403248;19;1010;-43
2023/05/22 11:17:28;;;;;;;;;;;;;;;19.86;67.47;100561.44;7402654;19;950;-42
2023/05/22 11:20:00;;;;;;;;;;;;;;;19.96;67.46;100561.41;7401235;19;1911;-42
2023/05/22 11:22:36;;;;;;;;;;;;;;;19.82;67.68;100544.78;7400820;19;1534;-42
2023/05/22 11:25:09;;;;;;;;;;;;;;;19.81;68.08;100548.44;7401108;19;1513;-42
2023/05/22 11:27:38;;;;;;;;;;;;;;;19.70;68.31;100539.72;7400305;19;1841;-42
2023/05/22 11:30:11;;;;;;;;;;;;;;;19.78;68.09;100532.66;7400687;19;1565;-42
2023/05/22 11:32:43;;;;;;;;;;;;;;;20.04;67.23;100532.00;7400339;19;1336;-42
2023/05/22 11:35:15;;;;;;;;;;;;;;;20.13;66.81;100531.06;7400466;19;1384;-42
2023/05/22 11:37:44;;;;;;;;;;;;;;;20.33;66.08;100530.97;7397802;19;1327;-42
2023/05/22 11:40:14;;;;;;;;;;;;;;;20.15;66.78;100544.34;7399163;19;1735;-42
2023/05/22 11:42:42;;;;;;;;;;;;;;;19.87;67.78;100525.53;7398896;19;1674;-42
2023/05/22 11:45:14;;;;;;;;;;;;;;;19.78;68.09;100532.66;7398778;19;1323;-42
2023/05/22 11:47:42;;;;;;;;;;;;;;;20.03;67.06;100514.19;7400953;19;1847;-42
2023/05/22 11:50:11;;;;;;;;;;;;;;;20.01;67.13;100517.00;7399766;19;1522;-42
2023/05/22 11:52:40;;;;;;;;;;;;;;;19.97;67.04;100520.97;7399698;19;1866;-42
2023/05/22 11:55:09;;;;;;;;;;;;;;;20.04;67.01;100516.72;7399756;19;1853;-42
2023/05/22 11:57:38;;;;;;;;;;;;;;;20.12;67.02;100521.34;7401218;19;1053;-42
2023/05/22 12:00:07;;;;;;;;;;;;;;;19.92;67.62;100531.31;7398704;19;952;-42
2023/05/22 12:02:38;;;;;;;;;;;;;;;19.80;67.56;100511.88;7397499;19;1948;-42
2023/05/22 12:05:10;;;;;;;;;;;;;;;19.70;67.95;100518.25;7398378;19;1296;-42
2023/05/22 12:07:38;;;;;;;;;;;;;;;19.81;68.03;100515.41;7399187;19;1844;-42
2023/05/22 12:10:08;;;;;;;;;;;;;;;19.85;68.11;100506.91;7397532;19;1820;-42
2023/05/22 12:12:36;;;;;;;;;;;;;;;20.07;67.07;100496.78;7399436;19;1722;-42
2023/05/22 12:15:06;;;;;;;;;;;;;;;20.15;66.95;100494.19;7399404;19;1477;-42
2023/05/22 12:17:37;;;;;;;;;;;;;;;20.20;66.80;100478.50;7400873;19;974;-42
2023/05/22 12:20:08;;;;;;;;;;;;;;;20.25;66.46;100489.63;7398054;19;990;-42
2023/05/22 12:22:42;;;;;;;;;;;;;;;20.31;66.58;100476.59;7399548;19;1506;-42
2023/05/22 12:25:15;;;;;;;;;;;;;;;20.21;66.93;100472.13;7399168;19;1836;-42
2023/05/22 12:27:44;;;;;;;;;;;;;;;20.18;66.56;100483.16;7398621;19;1854;-42
2023/05/22 12:30:14;;;;;;;;;;;;;;;20.08;67.43;100465.44;7398373;19;1849;-42
2023/05/22 12:32:43;;;;;;;;;;;;;;;20.17;67.01;100435.81;7398365;19;1843;-42
2023/05/22 12:35:19;;;;;;;;;;;;;;;20.09;66.94;100465.25;7399308;19;1030;-42
2023/05/22 12:37:50;;;;;;;;;;;;;;;19.95;67.74;100453.19;7398275;19;1935;-42
2023/05/22 12:40:18;;;;;;;;;;;;;;;20.30;66.77;100451.59;7397975;19;1951;-42
2023/05/22 12:42:47;;;;;;;;;;;;;;;20.16;66.74;100450.25;7397612;19;1857;-42
2023/05/22 12:45:16;;;;;;;;;;;;;;;20.14;66.88;100436.13;7398700;19;1782;-42
2023/05/22 12:47:45;;;;;;;;;;;;;;;20.31;66.15;100447.88;7397605;19;1407;-42
2023/05/22 12:50:13;;;;;;;;;;;;;;;20.20;66.29;100430.16;7395694;19;1847;-42
2023/05/22 12:52:44;;;;;;;;;;;;;;;20.17;66.91;100437.66;7396903;19;1718;-42
2023/05/22 12:55:12;;;;;;;;;;;;;;;20.00;66.98;100442.03;7397069;19;1774;-42
2023/05/22 12:57:41;;;;;;;;;;;;;;;20.07;67.25;100445.78;7396526;19;1474;-43
2023/05/22 13:00:10;;;;;;;;;;;;;;;20.01;67.01;100455.28;7398808;19;1023;-42